Columbus, Ohio
Traffic Map
Current Weather Conditions
Columbus, Ohio
Scattered Clouds
Scattered Clouds
68°
Feels Like: 68°
Wind Chill: 68° Ceiling: Unl
Heat Index: 68° Visibility: 10mi
Dew Point: 63° Wind: 9mph
Humidity: 84% Direction: 300° (WNW)
Pressure: 29.73in Gusts: 0mph
Raw Report DataKCMH 280351Z 30008KT 10SM FEW060 SCT080 20/17 A2973 RMK AO2 SLP061 T02000172
Traffic Incident Summary
Active as of:
Severity:
Category:
InformationThere was an issue retrieving the traffic information for this location. Please try a different location or try again shortly.
Advertisements
Track Severe Weather on mobile